Sharon, SC

8:22 AM EDT on July 03, 2015 (GMT -0400)
Hilton Pond Center for Piedmont Natural History | | Change Station
CLOSE
Current Station
Personal Weather Station
Location: York, SC
Elevation: 705 ft
Nearby Weather Stations

Elev 705 ft 34.97 °N, 81.22 °W | Updated 10 seconds ago

Overcast
Overcast
72.4 °F
Feels Like 72.4 °F
N
0.0
Wind Variable Wind from North
Gusts 0.0 mph

Today
High -- | Low -- °F
--% Chance of Precip.
Yesterday
High -- | Low -- °F
Precip. -- in
6:16 AM 8:42 PM
Full, 97% visible
Pressure 29.96 in
Visibility 4.0 miles
Clouds Overcast 300 ft
Dew Point 71 °F
Humidity 96%
Rainfall 0.00 in
Snow Depth Not available.
UV 1 out of 12
Pollen .50 out of 12
Air Quality Not available.
Flu Activity Not available.
METAR KDCM 031215Z AUTO 19003KT 4SM BR OVC003 23/22 A2996 RMK AO2

More Conditions Fewer Conditions

Pressure 29.96 in
Visibility 4.0 miles
Clouds Overcast 300 ft
Dew Point 71 °F
Humidity 96%
Rainfall 0.00 in
Snow Depth Not available.
UV 1 out of 12
Pollen .50 out of 12
Air Quality Not available.
Flu Activity Not available.
METAR KDCM 031215Z AUTO 19003KT 4SM BR OVC003 23/22 A2996 RMK AO2

More Conditions Fewer Conditions

10-Day Weather Forecast

×

Almanac

Astronomy

Jul. 03, 2015 Rise Set
Actual Time
Civil Twilight
Nautical Twilight
Astronomical Twilight
Moon
Length of Visible Light
Length of Day
Tomorrow will be .
, % of the Moon is Illuminated

Today's Extremes

State Highs State Lows

Community

WunderPhotos

Upload Photos

1,834,656 photos uploaded!

WunderBlogs® & News

Nearby

Air Quality

  Air Quality AQ Index Pollutant
Not available.

Snow Depth

Station Depth Elevation

Earthquake Activity

City Distance Mag. Time & Date
Minimum magnitude displayed is 2.5.

Coastal Water Temperatures

Place Temperature

Stations

Nearby Weather Stations

Station Location Temp. Windchill Dew Point Humidity Wind Precip. Elev Updated Type